Time;durP1;ratioP1;P1;durP2;ratioP2;P2;SDS_P1;SDS_P2;PMS_P1;PMS_P2;Temp;Humidity;BMP_temperature;BMP_pressure;BME280_temperature;BME280_humidity;BME280_pressure;Samples;Min_cycle;Max_cycle;Signal;HPM_P1;HPM_P2
2022/06/20 00:00:19;;;;;;;16.08;4.75;;;;;;;;;;4975524;28;20490;-70
2022/06/20 00:02:47;;;;;;;13.43;4.68;;;;;;;;;;4962977;28;20051;-70
2022/06/20 00:05:21;;;;;;;11.07;4.75;;;;;;;;;;4960910;28;20043;-70
2022/06/20 00:07:47;;;;;;;11.25;4.47;;;;;;;;;;4969166;28;20134;-70
2022/06/20 00:10:15;;;;;;;11.82;5.07;;;;;;;;;;4958576;28;20051;-70
2022/06/20 00:12:42;;;;;;;12.57;4.47;;;;;;;;;;4972771;28;20047;-70
2022/06/20 00:15:08;;;;;;;12.88;4.75;;;;;;;;;;4977699;28;20532;-70
2022/06/20 00:17:35;;;;;;;11.77;4.88;;;;;;;;;;4978367;28;20050;-70
2022/06/20 00:20:01;;;;;;;12.40;4.60;;;;;;;;;;4977912;28;20038;-70
2022/06/20 00:22:28;;;;;;;10.85;4.40;;;;;;;;;;4978704;28;20065;-70
2022/06/20 00:24:54;;;;;;;14.60;4.90;;;;;;;;;;4961442;28;20121;-70
2022/06/20 00:27:20;;;;;;;13.80;4.47;;;;;;;;;;4958415;29;20035;-70
2022/06/20 00:29:47;;;;;;;15.75;4.90;;;;;;;;;;4958198;29;20050;-70
2022/06/20 00:32:13;;;;;;;14.10;4.78;;;;;;;;;;4958739;29;20517;-70
2022/06/20 00:34:40;;;;;;;13.93;4.68;;;;;;;;;;4958405;29;20482;-70
2022/06/20 00:37:06;;;;;;;10.13;4.75;;;;;;;;;;4958010;29;20057;-70
2022/06/20 00:39:32;;;;;;;9.45;4.35;;;;;;;;;;4958245;29;20083;-70
2022/06/20 00:42:00;;;;;;;11.45;4.47;;;;;;;;;;4958491;29;20077;-70
2022/06/20 00:44:32;;;;;;;10.73;4.03;;;;;;;;;;4958608;29;20051;-70
2022/06/20 00:47:02;;;;;;;10.45;4.32;;;;;;;;;;4957998;29;20037;-70
2022/06/20 00:49:34;;;;;;;12.15;4.75;;;;;;;;;;4958450;29;20051;-70
2022/06/20 00:52:08;;;;;;;10.82;4.13;;;;;;;;;;4958546;29;20046;-70
2022/06/20 00:54:54;;;;;;;10.93;4.40;;;;;;;;;;4957877;29;20039;-70
2022/06/20 00:57:34;;;;;;;10.48;4.30;;;;;;;;;;4944458;29;20051;-70
2022/06/20 01:00:15;;;;;;;12.00;4.45;;;;;;;;;;4961421;28;20042;-70
2022/06/20 01:02:44;;;;;;;14.52;4.80;;;;;;;;;;4977773;28;20043;-70
2022/06/20 01:05:16;;;;;;;8.15;4.40;;;;;;;;;;4976827;28;20509;-70
2022/06/20 01:07:51;;;;;;;14.32;4.50;;;;;;;;;;4968161;28;20047;-70
2022/06/20 01:10:18;;;;;;;11.55;4.40;;;;;;;;;;4965681;28;20039;-70
2022/06/20 01:12:58;;;;;;;9.82;4.05;;;;;;;;;;4972117;28;20043;-70
2022/06/20 01:15:26;;;;;;;14.63;5.03;;;;;;;;;;4958659;28;20050;-70
2022/06/20 01:17:53;;;;;;;11.55;4.47;;;;;;;;;;4962392;28;20129;-70
2022/06/20 01:20:21;;;;;;;8.20;4.00;;;;;;;;;;4973004;28;20031;-70
2022/06/20 01:22:54;;;;;;;12.32;4.90;;;;;;;;;;4958261;28;20053;-70
2022/06/20 01:25:43;;;;;;;11.80;4.88;;;;;;;;;;4967557;28;20142;-70
2022/06/20 01:28:11;;;;;;;8.48;4.60;;;;;;;;;;4968580;28;20498;-70
2022/06/20 01:30:40;;;;;;;11.07;4.80;;;;;;;;;;4969802;28;20051;-70
2022/06/20 01:33:06;;;;;;;9.80;4.97;;;;;;;;;;4958098;28;20043;-70
2022/06/20 01:38:19;;;;;;;13.90;5.05;;;;;;;;;;4961356;28;20086;-70
2022/06/20 01:43:32;;;;;;;8.65;4.70;;;;;;;;;;4960847;28;20042;-70
2022/06/20 01:45:58;;;;;;;11.88;5.20;;;;;;;;;;4958354;28;20125;-70
2022/06/20 01:48:26;;;;;;;14.15;5.10;;;;;;;;;;4958843;28;20091;-70
2022/06/20 01:50:53;;;;;;;15.60;5.43;;;;;;;;;;4974638;28;20070;-70
2022/06/20 01:53:22;;;;;;;11.75;4.95;;;;;;;;;;4971744;28;20524;-70
2022/06/20 01:55:50;;;;;;;14.05;4.97;;;;;;;;;;4957854;28;20054;-70
2022/06/20 01:58:23;;;;;;;14.43;4.80;;;;;;;;;;4972720;28;20066;-70
2022/06/20 02:00:50;;;;;;;10.30;4.72;;;;;;;;;;4973283;28;20129;-70
2022/06/20 02:03:17;;;;;;;11.98;4.35;;;;;;;;;;4974157;28;20030;-70
2022/06/20 02:05:44;;;;;;;11.45;4.90;;;;;;;;;;4963274;28;20075;-70
2022/06/20 02:08:11;;;;;;;10.80;5.53;;;;;;;;;;4961236;28;20043;-70
2022/06/20 02:10:49;;;;;;;10.15;4.75;;;;;;;;;;4972862;28;20393;-70
2022/06/20 02:13:17;;;;;;;13.25;4.95;;;;;;;;;;4961328;28;20043;-70
2022/06/20 02:15:44;;;;;;;11.10;5.13;;;;;;;;;;4958011;28;20053;-70
2022/06/20 02:18:10;;;;;;;9.45;5.00;;;;;;;;;;4969108;28;20054;-70
2022/06/20 02:20:45;;;;;;;11.30;4.70;;;;;;;;;;4966564;28;20058;-70
2022/06/20 02:23:12;;;;;;;8.60;4.90;;;;;;;;;;4967023;28;20039;-70
2022/06/20 02:25:39;;;;;;;12.10;4.70;;;;;;;;;;4963948;28;20050;-70
2022/06/20 02:28:06;;;;;;;10.93;5.15;;;;;;;;;;4968562;28;20085;-70
2022/06/20 02:30:33;;;;;;;10.73;4.28;;;;;;;;;;4963516;28;20046;-70
2022/06/20 02:33:03;;;;;;;11.73;4.90;;;;;;;;;;4965331;28;20035;-70
2022/06/20 02:35:29;;;;;;;11.57;4.68;;;;;;;;;;4961810;28;20043;-70
2022/06/20 02:37:56;;;;;;;12.45;5.00;;;;;;;;;;4957198;28;20074;-70
2022/06/20 02:40:23;;;;;;;12.65;4.70;;;;;;;;;;4963835;28;20432;-70
2022/06/20 02:42:52;;;;;;;14.00;5.07;;;;;;;;;;4960490;28;20078;-70
2022/06/20 02:45:19;;;;;;;10.35;4.80;;;;;;;;;;4956926;28;20043;-70
2022/06/20 02:47:46;;;;;;;11.77;4.82;;;;;;;;;;4956841;28;20047;-70
2022/06/20 02:50:14;;;;;;;15.13;5.45;;;;;;;;;;4973581;28;20054;-70
2022/06/20 02:53:01;;;;;;;10.48;5.03;;;;;;;;;;4968382;28;20042;-70
2022/06/20 02:55:28;;;;;;;13.10;5.32;;;;;;;;;;4959912;29;20122;-70
2022/06/20 02:57:56;;;;;;;15.88;5.50;;;;;;;;;;4974446;28;20050;-70
2022/06/20 03:00:29;;;;;;;11.48;5.57;;;;;;;;;;4977307;28;20050;-70
2022/06/20 03:02:57;;;;;;;18.75;5.25;;;;;;;;;;4967758;28;20074;-70
2022/06/20 03:05:24;;;;;;;10.57;5.18;;;;;;;;;;4960883;28;20110;-70
2022/06/20 03:07:51;;;;;;;11.60;5.45;;;;;;;;;;4960808;28;20043;-70
2022/06/20 03:10:17;;;;;;;14.65;5.72;;;;;;;;;;4965709;28;20050;-70
2022/06/20 03:12:44;;;;;;;10.73;5.57;;;;;;;;;;4973042;28;20043;-70
2022/06/20 03:15:10;;;;;;;15.27;5.32;;;;;;;;;;4959977;28;20148;-70
2022/06/20 03:17:36;;;;;;;11.73;5.40;;;;;;;;;;4961123;28;20520;-70
2022/06/20 03:20:06;;;;;;;14.30;5.80;;;;;;;;;;4971017;28;20054;-70
2022/06/20 03:22:35;;;;;;;12.43;5.47;;;;;;;;;;4962125;28;20031;-70
2022/06/20 03:25:02;;;;;;;9.52;4.75;;;;;;;;;;4976736;28;20055;-70
2022/06/20 03:27:30;;;;;;;10.60;5.13;;;;;;;;;;4970003;28;20421;-70
2022/06/20 03:29:59;;;;;;;10.90;5.38;;;;;;;;;;4975277;28;20050;-70
2022/06/20 03:32:26;;;;;;;15.05;5.85;;;;;;;;;;4965465;28;20031;-70
2022/06/20 03:34:53;;;;;;;11.15;5.00;;;;;;;;;;4976644;28;20038;-70
2022/06/20 03:37:20;;;;;;;12.05;5.97;;;;;;;;;;4960276;28;20039;-70
2022/06/20 03:39:46;;;;;;;13.73;5.47;;;;;;;;;;4964709;28;20034;-70
2022/06/20 03:42:13;;;;;;;8.93;4.88;;;;;;;;;;4976242;28;20043;-70
2022/06/20 03:44:50;;;;;;;11.63;4.95;;;;;;;;;;4964361;28;20616;-70
2022/06/20 03:47:20;;;;;;;11.98;5.60;;;;;;;;;;4973507;28;20071;-70
2022/06/20 03:49:46;;;;;;;10.23;4.75;;;;;;;;;;4963179;28;20126;-70
2022/06/20 03:52:23;;;;;;;10.98;6.03;;;;;;;;;;4966944;28;20043;-70
2022/06/20 03:54:51;;;;;;;11.10;5.15;;;;;;;;;;4975560;28;20054;-70
2022/06/20 03:57:23;;;;;;;11.38;4.65;;;;;;;;;;4965089;28;20043;-70
2022/06/20 04:00:11;;;;;;;10.48;5.15;;;;;;;;;;4975645;28;20042;-70
2022/06/20 04:02:37;;;;;;;9.93;5.25;;;;;;;;;;4968917;28;20123;-70
2022/06/20 04:05:21;;;;;;;8.75;5.72;;;;;;;;;;4958611;29;20055;-70
2022/06/20 04:07:51;;;;;;;7.80;4.80;;;;;;;;;;4958594;29;20134;-69
2022/06/20 04:13:30;;;;;;;14.32;5.65;;;;;;;;;;4977346;28;20417;-70
2022/06/20 04:16:06;;;;;;;14.18;5.30;;;;;;;;;;4973503;28;20568;-71
2022/06/20 04:18:40;;;;;;;12.40;5.43;;;;;;;;;;4976267;28;20046;-70
2022/06/20 04:21:12;;;;;;;10.10;4.95;;;;;;;;;;4975457;28;20066;-70
2022/06/20 04:23:47;;;;;;;11.93;5.18;;;;;;;;;;4974448;28;20043;-71
2022/06/20 04:26:17;;;;;;;14.07;5.68;;;;;;;;;;4976193;28;20057;-70
2022/06/20 04:28:52;;;;;;;8.63;5.20;;;;;;;;;;4976883;28;20097;-70
2022/06/20 04:31:21;;;;;;;11.95;5.40;;;;;;;;;;4977138;28;20049;-71
2022/06/20 04:33:59;;;;;;;9.88;5.22;;;;;;;;;;4976642;28;20039;-71
2022/06/20 04:36:25;;;;;;;11.38;5.10;;;;;;;;;;4977616;28;20046;-71
2022/06/20 04:38:53;;;;;;;11.82;5.07;;;;;;;;;;4977321;28;20052;-74
2022/06/20 04:41:29;;;;;;;9.35;5.35;;;;;;;;;;4977433;28;20105;-71
2022/06/20 04:43:58;;;;;;;11.88;5.13;;;;;;;;;;4977524;28;20577;-72
2022/06/20 04:46:43;;;;;;;9.88;5.10;;;;;;;;;;4975593;28;20557;-72
2022/06/20 04:49:13;;;;;;;11.93;5.07;;;;;;;;;;4977171;28;20050;-72
2022/06/20 04:51:40;;;;;;;9.98;4.85;;;;;;;;;;4977227;28;20038;-72
2022/06/20 04:54:08;;;;;;;12.07;5.50;;;;;;;;;;4976724;28;20042;-72
2022/06/20 04:56:35;;;;;;;12.75;5.20;;;;;;;;;;4977287;28;20045;-72
2022/06/20 04:59:03;;;;;;;9.07;5.18;;;;;;;;;;4976978;28;20117;-72
2022/06/20 05:01:33;;;;;;;7.82;4.38;;;;;;;;;;4977835;28;20057;-72
2022/06/20 05:04:04;;;;;;;11.30;4.95;;;;;;;;;;4976913;28;20050;-72
2022/06/20 05:06:31;;;;;;;12.13;5.68;;;;;;;;;;4977075;28;20050;-72
2022/06/20 05:09:04;;;;;;;11.73;5.53;;;;;;;;;;4976919;28;20076;-72
2022/06/20 05:11:59;;;;;;;10.63;5.18;;;;;;;;;;4976556;28;20038;-72
2022/06/20 05:14:36;;;;;;;7.90;4.68;;;;;;;;;;4956420;28;20097;-72
2022/06/20 05:17:03;;;;;;;8.75;4.82;;;;;;;;;;4977344;28;20053;-72
2022/06/20 05:19:38;;;;;;;15.10;5.03;;;;;;;;;;4977148;28;20039;-72
2022/06/20 05:22:11;;;;;;;13.40;5.22;;;;;;;;;;4976765;28;20045;-72
2022/06/20 05:24:38;;;;;;;10.35;5.38;;;;;;;;;;4977094;28;20058;-72
2022/06/20 05:27:11;;;;;;;10.77;5.18;;;;;;;;;;4977218;28;20034;-72
2022/06/20 05:29:38;;;;;;;9.13;5.07;;;;;;;;;;4977108;28;20055;-72
2022/06/20 05:32:07;;;;;;;7.35;5.15;;;;;;;;;;4977022;28;20043;-72
2022/06/20 05:34:44;;;;;;;10.02;5.03;;;;;;;;;;4976920;28;20055;-72
2022/06/20 05:37:13;;;;;;;10.88;5.22;;;;;;;;;;4977286;28;20050;-72
2022/06/20 05:39:39;;;;;;;9.27;4.85;;;;;;;;;;4976753;28;20046;-72
2022/06/20 05:42:05;;;;;;;10.25;5.03;;;;;;;;;;4976897;28;20038;-72
2022/06/20 05:44:31;;;;;;;11.02;5.13;;;;;;;;;;4977053;28;20046;-72
2022/06/20 05:47:04;;;;;;;11.75;4.80;;;;;;;;;;4977324;28;20069;-72
2022/06/20 05:49:34;;;;;;;11.35;4.55;;;;;;;;;;4976408;28;20149;-72
2022/06/20 05:52:00;;;;;;;10.18;4.72;;;;;;;;;;4972167;28;20093;-72
2022/06/20 05:54:34;;;;;;;10.27;5.05;;;;;;;;;;4975194;28;20501;-72
2022/06/20 05:57:07;;;;;;;8.07;5.05;;;;;;;;;;4974522;28;20038;-72
2022/06/20 05:59:41;;;;;;;8.88;4.60;;;;;;;;;;4964647;28;20122;-72
2022/06/20 06:02:20;;;;;;;10.80;5.40;;;;;;;;;;4966846;28;20043;-72
2022/06/20 06:04:52;;;;;;;9.95;4.65;;;;;;;;;;4972178;28;20073;-72
2022/06/20 06:07:22;;;;;;;11.05;4.45;;;;;;;;;;4975776;28;20137;-72
2022/06/20 06:09:55;;;;;;;8.70;4.43;;;;;;;;;;4972904;28;20107;-72
2022/06/20 06:12:26;;;;;;;11.25;5.00;;;;;;;;;;4965690;28;20778;-72
2022/06/20 06:14:54;;;;;;;11.43;4.75;;;;;;;;;;4967870;28;20043;-73
2022/06/20 06:17:20;;;;;;;9.52;5.13;;;;;;;;;;4951116;28;20508;-72
2022/06/20 06:19:51;;;;;;;11.30;5.03;;;;;;;;;;4957174;28;20047;-71
2022/06/20 06:22:17;;;;;;;9.27;5.05;;;;;;;;;;4957980;28;20046;-71
2022/06/20 06:24:45;;;;;;;9.30;4.47;;;;;;;;;;4955865;29;20074;-71
2022/06/20 06:27:17;;;;;;;10.43;5.15;;;;;;;;;;4966095;28;20118;-71
2022/06/20 06:29:46;;;;;;;7.72;4.43;;;;;;;;;;4972529;28;20105;-71
2022/06/20 06:32:16;;;;;;;11.98;4.97;;;;;;;;;;4975170;28;20042;-71
2022/06/20 06:34:53;;;;;;;11.23;5.07;;;;;;;;;;4962772;28;20051;-71
2022/06/20 06:37:25;;;;;;;9.25;5.00;;;;;;;;;;4968162;28;20127;-71
2022/06/20 06:39:59;;;;;;;10.95;4.93;;;;;;;;;;4965989;28;20050;-72
2022/06/20 06:42:25;;;;;;;12.35;4.90;;;;;;;;;;4957041;29;20118;-71
2022/06/20 06:44:53;;;;;;;8.93;4.70;;;;;;;;;;4956881;29;20051;-71
2022/06/20 06:47:38;;;;;;;13.48;4.80;;;;;;;;;;4958828;28;20046;-71
2022/06/20 06:50:15;;;;;;;12.73;4.72;;;;;;;;;;4969155;28;20055;-72
2022/06/20 06:52:45;;;;;;;15.00;4.80;;;;;;;;;;4970157;28;20045;-71
2022/06/20 06:55:17;;;;;;;8.63;4.07;;;;;;;;;;4975815;28;20077;-72
2022/06/20 06:58:07;;;;;;;10.38;4.32;;;;;;;;;;4974753;28;20045;-72
2022/06/20 07:00:36;;;;;;;10.27;4.80;;;;;;;;;;4974528;28;20054;-72
2022/06/20 07:03:09;;;;;;;11.75;4.88;;;;;;;;;;4964703;28;20540;-71
2022/06/20 07:05:37;;;;;;;11.43;4.70;;;;;;;;;;4970866;28;20055;-71
2022/06/20 07:08:39;;;;;;;11.55;4.88;;;;;;;;;;4970698;28;20046;-71
2022/06/20 07:11:05;;;;;;;10.95;5.30;;;;;;;;;;4878236;29;20133;-71
2022/06/20 07:13:34;;;;;;;16.80;5.43;;;;;;;;;;4941129;29;20047;-71
2022/06/20 07:16:02;;;;;;;9.75;5.35;;;;;;;;;;4956049;29;20047;-71
2022/06/20 07:18:28;;;;;;;15.02;5.15;;;;;;;;;;4966609;28;20045;-71
2022/06/20 07:20:54;;;;;;;9.20;5.03;;;;;;;;;;4975561;28;20053;-70
2022/06/20 07:23:20;;;;;;;8.20;5.38;;;;;;;;;;4966890;28;20093;-70
2022/06/20 07:25:50;;;;;;;12.05;5.65;;;;;;;;;;4961804;28;20047;-70
2022/06/20 07:28:19;;;;;;;11.35;5.00;;;;;;;;;;4964839;28;20042;-70
2022/06/20 07:30:48;;;;;;;10.23;4.90;;;;;;;;;;4968578;28;20520;-70
2022/06/20 07:33:22;;;;;;;13.45;4.97;;;;;;;;;;4969037;28;20047;-70
2022/06/20 07:35:55;;;;;;;7.40;4.65;;;;;;;;;;4977698;28;20071;-70
2022/06/20 07:38:21;;;;;;;7.53;4.32;;;;;;;;;;4978874;28;20066;-69
2022/06/20 07:40:53;;;;;;;11.25;4.72;;;;;;;;;;4976886;28;20493;-69
2022/06/20 07:43:25;;;;;;;15.52;4.65;;;;;;;;;;4977986;28;20521;-70
2022/06/20 07:45:52;;;;;;;9.50;4.90;;;;;;;;;;4968129;28;20054;-70
2022/06/20 07:48:18;;;;;;;8.25;4.63;;;;;;;;;;4974845;28;20050;-70
2022/06/20 07:50:47;;;;;;;9.13;4.28;;;;;;;;;;4970032;28;20102;-71
2022/06/20 07:53:19;;;;;;;10.07;4.63;;;;;;;;;;4975261;28;20047;-71
2022/06/20 07:55:49;;;;;;;11.77;5.10;;;;;;;;;;4973138;28;20122;-71
2022/06/20 07:58:18;;;;;;;8.02;4.57;;;;;;;;;;4977917;28;20051;-71
2022/06/20 08:00:46;;;;;;;11.38;4.50;;;;;;;;;;4974638;28;20077;-71
2022/06/20 08:03:15;;;;;;;8.77;4.18;;;;;;;;;;4967554;28;20035;-71
2022/06/20 08:05:45;;;;;;;14.75;5.75;;;;;;;;;;4965964;28;20131;-71
2022/06/20 08:08:19;;;;;;;9.57;4.63;;;;;;;;;;4964881;28;20042;-71
2022/06/20 08:10:47;;;;;;;10.20;5.07;;;;;;;;;;4973933;28;20129;-71
2022/06/20 08:13:14;;;;;;;8.75;4.57;;;;;;;;;;4975375;28;20086;-71
2022/06/20 08:15:43;;;;;;;7.15;4.40;;;;;;;;;;4968340;28;20058;-71
2022/06/20 08:18:09;;;;;;;8.80;4.30;;;;;;;;;;4966253;28;20093;-71
2022/06/20 08:20:38;;;;;;;8.98;4.18;;;;;;;;;;4964824;28;20042;-70
2022/06/20 08:23:09;;;;;;;10.48;4.60;;;;;;;;;;4965953;28;20387;-69
2022/06/20 08:25:41;;;;;;;12.82;5.10;;;;;;;;;;4965223;28;20059;-71
2022/06/20 08:28:11;;;;;;;8.52;4.72;;;;;;;;;;4963208;28;20093;-70
2022/06/20 08:30:39;;;;;;;9.93;4.35;;;;;;;;;;4958465;29;20422;-70
2022/06/20 08:33:09;;;;;;;9.27;4.10;;;;;;;;;;4941222;29;20394;-70
2022/06/20 08:35:41;;;;;;;8.15;4.07;;;;;;;;;;4958751;29;20047;-70
2022/06/20 08:38:09;;;;;;;8.70;4.30;;;;;;;;;;4958726;29;20064;-70
2022/06/20 08:40:54;;;;;;;10.43;4.18;;;;;;;;;;4958145;29;20043;-70
2022/06/20 08:43:33;;;;;;;11.85;4.22;;;;;;;;;;4958366;29;20043;-69
2022/06/20 08:45:59;;;;;;;11.27;4.50;;;;;;;;;;4957034;28;20049;-70
2022/06/20 08:48:28;;;;;;;7.78;4.40;;;;;;;;;;4960996;28;20050;-69
2022/06/20 08:51:07;;;;;;;10.43;4.43;;;;;;;;;;4977214;28;20493;-70
2022/06/20 08:53:59;;;;;;;8.50;4.70;;;;;;;;;;4977469;28;20046;-70
2022/06/20 08:56:43;;;;;;;9.43;4.00;;;;;;;;;;4977707;28;20074;-70
2022/06/20 08:59:33;;;;;;;10.63;4.28;;;;;;;;;;4976962;28;20564;-71
2022/06/20 09:02:31;;;;;;;11.25;4.03;;;;;;;;;;4977733;28;20104;-71
2022/06/20 09:05:00;;;;;;;13.63;4.50;;;;;;;;;;4955081;28;20051;-71
2022/06/20 09:07:26;;;;;;;9.75;4.30;;;;;;;;;;4977126;28;20065;-71
2022/06/20 09:10:19;;;;;;;9.38;4.25;;;;;;;;;;4977007;28;20049;-71
2022/06/20 09:12:52;;;;;;;10.55;4.78;;;;;;;;;;4961740;28;20090;-71
2022/06/20 09:15:36;;;;;;;18.77;4.72;;;;;;;;;;4977006;28;20069;-71
2022/06/20 09:18:05;;;;;;;11.70;3.75;;;;;;;;;;4969315;28;20058;-70
2022/06/20 09:20:35;;;;;;;9.30;3.85;;;;;;;;;;4964702;28;20043;-70
2022/06/20 09:23:06;;;;;;;8.95;4.68;;;;;;;;;;4971502;28;20043;-70
2022/06/20 09:25:50;;;;;;;10.10;4.30;;;;;;;;;;4963702;28;20055;-70
2022/06/20 09:28:25;;;;;;;13.20;4.55;;;;;;;;;;4976143;28;20050;-71
2022/06/20 09:30:54;;;;;;;10.15;4.30;;;;;;;;;;4976891;28;20039;-69
2022/06/20 09:33:20;;;;;;;7.78;3.97;;;;;;;;;;4976759;28;20588;-68
2022/06/20 09:36:05;;;;;;;9.65;4.38;;;;;;;;;;4958331;28;20121;-72
2022/06/20 09:38:43;;;;;;;9.60;3.97;;;;;;;;;;4960860;28;20497;-79
2022/06/20 09:41:36;;;;;;;11.35;4.30;;;;;;;;;;4965379;28;20130;-79
2022/06/20 09:44:14;;;;;;;7.00;3.75;;;;;;;;;;4949299;28;20039;-80
2022/06/20 09:46:48;;;;;;;10.32;3.55;;;;;;;;;;4941199;28;20035;-84
2022/06/20 09:49:33;;;;;;;10.32;4.15;;;;;;;;;;4943250;28;20142;-73
2022/06/20 09:52:22;;;;;;;11.85;4.13;;;;;;;;;;4962515;28;20042;-72
2022/06/20 09:54:54;;;;;;;6.53;3.63;;;;;;;;;;4961976;28;20050;-70
2022/06/20 09:57:23;;;;;;;10.80;3.90;;;;;;;;;;4946194;28;20043;-70
2022/06/20 10:00:12;;;;;;;12.18;3.75;;;;;;;;;;4963339;28;20042;-72
2022/06/20 10:02:47;;;;;;;8.43;3.80;;;;;;;;;;4957885;28;20116;-70
2022/06/20 10:05:32;;;;;;;8.38;3.90;;;;;;;;;;4960039;28;20051;-71
2022/06/20 10:08:06;;;;;;;8.40;4.10;;;;;;;;;;4961066;28;20058;-70
2022/06/20 10:10:39;;;;;;;10.07;3.97;;;;;;;;;;4956824;29;20047;-70
2022/06/20 10:13:11;;;;;;;10.57;3.60;;;;;;;;;;4957233;29;20043;-70
2022/06/20 10:15:37;;;;;;;11.57;3.85;;;;;;;;;;4956881;29;20118;-70
2022/06/20 10:18:10;;;;;;;9.10;3.40;;;;;;;;;;4957021;29;20137;-70
2022/06/20 10:20:51;;;;;;;7.03;3.50;;;;;;;;;;4956861;29;20074;-70
2022/06/20 10:23:17;;;;;;;8.68;3.60;;;;;;;;;;4956861;29;20043;-70
2022/06/20 10:25:48;;;;;;;8.15;3.95;;;;;;;;;;4956740;29;20521;-70
2022/06/20 10:28:33;;;;;;;9.07;4.13;;;;;;;;;;4957121;29;20059;-70
2022/06/20 10:31:07;;;;;;;9.10;3.60;;;;;;;;;;4956314;29;20054;-70
2022/06/20 10:33:53;;;;;;;7.63;3.80;;;;;;;;;;4957376;29;20116;-70
2022/06/20 10:36:42;;;;;;;7.78;3.33;;;;;;;;;;4957385;29;20043;-70
2022/06/20 10:39:09;;;;;;;10.98;3.92;;;;;;;;;;4946209;29;20082;-70
2022/06/20 10:41:50;;;;;;;10.70;3.83;;;;;;;;;;4956648;29;20043;-70
2022/06/20 10:44:25;;;;;;;8.82;3.80;;;;;;;;;;4956380;29;20081;-70
2022/06/20 10:46:51;;;;;;;13.10;4.15;;;;;;;;;;4956646;29;20083;-70
2022/06/20 10:49:20;;;;;;;8.32;3.88;;;;;;;;;;4956266;29;20050;-69
2022/06/20 10:51:56;;;;;;;9.75;4.05;;;;;;;;;;4956894;29;20050;-70
2022/06/20 10:54:40;;;;;;;12.30;5.88;;;;;;;;;;4956402;29;20047;-70
2022/06/20 10:57:22;;;;;;;9.70;3.40;;;;;;;;;;4956318;29;20050;-70
2022/06/20 11:00:00;;;;;;;9.43;3.88;;;;;;;;;;4956573;29;20055;-70
2022/06/20 11:02:26;;;;;;;10.95;3.65;;;;;;;;;;4956545;29;20077;-70
2022/06/20 11:05:03;;;;;;;11.40;3.70;;;;;;;;;;4956430;29;20055;-70
2022/06/20 11:07:45;;;;;;;10.20;4.10;;;;;;;;;;4956752;29;20054;-70
2022/06/20 11:10:29;;;;;;;6.85;3.75;;;;;;;;;;4958853;28;20130;-70
2022/06/20 11:13:10;;;;;;;11.88;4.20;;;;;;;;;;4960338;29;20047;-70
2022/06/20 11:15:56;;;;;;;13.05;3.97;;;;;;;;;;4960394;29;20051;-70
2022/06/20 11:18:29;;;;;;;10.52;4.13;;;;;;;;;;4960360;29;20039;-70
2022/06/20 11:21:05;;;;;;;10.10;4.20;;;;;;;;;;4960213;29;20066;-70
2022/06/20 11:23:35;;;;;;;13.45;4.00;;;;;;;;;;4960543;29;20122;-70
2022/06/20 11:26:09;;;;;;;8.02;3.55;;;;;;;;;;4959960;29;20078;-70
2022/06/20 11:28:47;;;;;;;10.57;4.20;;;;;;;;;;4960001;29;20047;-70
2022/06/20 11:31:39;;;;;;;10.07;4.30;;;;;;;;;;4959689;29;20043;-70
2022/06/20 11:34:26;;;;;;;7.57;3.95;;;;;;;;;;4956432;28;20150;-70
2022/06/20 11:37:07;;;;;;;9.52;3.70;;;;;;;;;;4959244;29;20035;-70
2022/06/20 11:39:39;;;;;;;9.85;4.32;;;;;;;;;;4958933;29;20514;-70
2022/06/20 11:42:17;;;;;;;9.80;3.50;;;;;;;;;;4959810;29;20062;-70
2022/06/20 11:44:43;;;;;;;9.98;3.92;;;;;;;;;;4959672;29;20051;-70
2022/06/20 11:47:14;;;;;;;10.45;3.95;;;;;;;;;;4959858;29;20039;-70
2022/06/20 11:49:59;;;;;;;8.15;3.90;;;;;;;;;;4959688;29;20061;-70
2022/06/20 11:52:29;;;;;;;11.77;4.22;;;;;;;;;;4959347;29;20035;-70
2022/06/20 11:54:55;;;;;;;;;;;;;;;;;;4959316;29;20047;-70
2022/06/20 11:57:40;;;;;;;8.95;3.75;;;;;;;;;;4959474;29;19910;-70
2022/06/20 12:00:12;;;;;;;9.40;4.38;;;;;;;;;;4959192;29;20043;-70
2022/06/20 12:02:56;;;;;;;11.02;4.22;;;;;;;;;;4959179;29;20031;-70
2022/06/20 12:05:30;;;;;;;8.48;4.38;;;;;;;;;;4959221;29;20043;-70
2022/06/20 12:07:58;;;;;;;12.50;4.35;;;;;;;;;;4959575;29;20047;-70
2022/06/20 12:10:25;;;;;;;12.30;4.40;;;;;;;;;;4958866;29;20043;-70
2022/06/20 12:13:02;;;;;;;9.02;4.28;;;;;;;;;;4958665;29;20069;-70
2022/06/20 12:15:33;;;;;;;10.57;4.13;;;;;;;;;;4958768;29;20052;-70
2022/06/20 12:17:59;;;;;;;9.77;4.13;;;;;;;;;;4959065;29;20047;-70
2022/06/20 12:23:25;;;;;;;7.55;3.70;;;;;;;;;;4958307;29;20073;-70
2022/06/20 12:26:01;;;;;;;16.30;4.38;;;;;;;;;;4959141;29;20055;-70
2022/06/20 12:28:32;;;;;;;11.10;4.00;;;;;;;;;;4958627;29;20047;-70
2022/06/20 12:31:02;;;;;;;12.38;4.68;;;;;;;;;;4959007;29;20051;-70
2022/06/20 12:33:29;;;;;;;11.40;4.35;;;;;;;;;;4958668;29;20076;-70
2022/06/20 12:35:57;;;;;;;14.25;4.18;;;;;;;;;;4958865;29;20050;-70
2022/06/20 12:38:36;;;;;;;11.38;4.38;;;;;;;;;;4958782;29;20615;-70
2022/06/20 12:41:05;;;;;;;9.88;3.90;;;;;;;;;;4958532;29;20047;-69
2022/06/20 12:43:31;;;;;;;13.75;4.55;;;;;;;;;;4958706;29;20105;-70
2022/06/20 12:46:12;;;;;;;11.65;4.32;;;;;;;;;;4958646;29;20047;-70
2022/06/20 12:48:38;;;;;;;8.27;3.60;;;;;;;;;;4958032;29;20402;-70
2022/06/20 12:51:09;;;;;;;14.45;4.38;;;;;;;;;;4958268;29;20051;-70
2022/06/20 12:53:38;;;;;;;9.55;4.18;;;;;;;;;;4958707;29;20055;-70
2022/06/20 12:56:18;;;;;;;10.77;4.25;;;;;;;;;;4958406;29;20043;-70
2022/06/20 12:58:47;;;;;;;11.20;3.92;;;;;;;;;;4958250;29;20130;-70
2022/06/20 13:01:46;;;;;;;9.43;4.38;;;;;;;;;;4958360;29;20138;-70
2022/06/20 13:04:25;;;;;;;10.23;3.72;;;;;;;;;;4916104;29;20067;-70
2022/06/20 13:07:10;;;;;;;7.22;3.90;;;;;;;;;;4958284;29;20202;-70
2022/06/20 13:09:54;;;;;;;10.05;3.67;;;;;;;;;;4957984;29;20106;-70
2022/06/20 13:12:26;;;;;;;9.68;3.95;;;;;;;;;;4958187;29;20123;-70
2022/06/20 13:15:11;;;;;;;12.15;4.20;;;;;;;;;;4958182;29;20102;-70
2022/06/20 13:17:37;;;;;;;12.13;4.63;;;;;;;;;;4957786;29;20046;-70
2022/06/20 13:20:09;;;;;;;7.47;4.18;;;;;;;;;;4957986;29;20035;-70
2022/06/20 13:22:45;;;;;;;8.40;3.58;;;;;;;;;;4958281;29;20074;-70
2022/06/20 13:25:11;;;;;;;13.55;4.65;;;;;;;;;;4958101;29;20113;-70
2022/06/20 13:27:55;;;;;;;8.55;4.05;;;;;;;;;;4957828;29;20043;-70
2022/06/20 13:30:21;;;;;;;9.00;4.10;;;;;;;;;;4957955;29;20042;-70
2022/06/20 13:32:59;;;;;;;9.00;4.43;;;;;;;;;;4957480;28;20066;-70
2022/06/20 13:35:32;;;;;;;10.48;4.15;;;;;;;;;;4957581;29;20043;-70
2022/06/20 13:38:05;;;;;;;10.73;3.97;;;;;;;;;;4957771;29;20047;-70
2022/06/20 13:40:31;;;;;;;11.23;4.00;;;;;;;;;;4957137;29;20047;-70
2022/06/20 13:43:06;;;;;;;9.63;3.88;;;;;;;;;;4957306;29;20047;-70
2022/06/20 13:45:44;;;;;;;11.90;4.20;;;;;;;;;;4958047;29;20035;-70
2022/06/20 13:48:16;;;;;;;13.02;4.20;;;;;;;;;;4957907;29;20051;-70
2022/06/20 13:50:51;;;;;;;9.05;4.10;;;;;;;;;;4957548;29;20031;-70
2022/06/20 13:53:30;;;;;;;12.60;4.53;;;;;;;;;;4957300;29;20051;-70
2022/06/20 13:56:02;;;;;;;11.50;4.40;;;;;;;;;;4957443;29;20115;-70
2022/06/20 13:58:41;;;;;;;10.95;4.00;;;;;;;;;;4957330;29;20058;-70
2022/06/20 14:01:11;;;;;;;8.05;4.25;;;;;;;;;;4957522;29;20043;-70
2022/06/20 14:03:37;;;;;;;;;;;;;;;;;;4958521;29;20538;-70
2022/06/20 14:06:09;;;;;;;10.55;4.30;;;;;;;;;;4957217;29;19914;-70
2022/06/20 14:08:35;;;;;;;9.43;4.68;;;;;;;;;;4957453;29;20051;-70
2022/06/20 14:11:04;;;;;;;8.38;4.13;;;;;;;;;;4957131;29;20039;-70
2022/06/20 14:13:37;;;;;;;11.85;4.45;;;;;;;;;;4957102;29;20047;-70
2022/06/20 14:16:18;;;;;;;11.02;4.38;;;;;;;;;;4957104;29;20050;-70
2022/06/20 14:18:47;;;;;;;12.02;3.95;;;;;;;;;;4957000;29;20050;-70
2022/06/20 14:21:13;;;;;;;12.93;4.03;;;;;;;;;;4957044;29;20047;-70
2022/06/20 14:23:40;;;;;;;11.40;3.88;;;;;;;;;;4957140;29;20043;-70
2022/06/20 14:26:23;;;;;;;12.90;4.03;;;;;;;;;;4956344;29;20102;-70
2022/06/20 14:28:49;;;;;;;8.05;4.07;;;;;;;;;;4956225;29;20495;-70
2022/06/20 14:31:26;;;;;;;8.57;4.13;;;;;;;;;;4956303;29;20043;-70
2022/06/20 14:33:58;;;;;;;12.13;4.30;;;;;;;;;;4956793;29;20043;-70
2022/06/20 14:36:30;;;;;;;9.40;4.03;;;;;;;;;;4957059;29;20083;-70
2022/06/20 14:38:56;;;;;;;7.50;3.97;;;;;;;;;;4956040;29;20118;-70
2022/06/20 14:41:40;;;;;;;13.63;3.95;;;;;;;;;;4956733;29;20043;-70
2022/06/20 14:44:27;;;;;;;10.13;4.20;;;;;;;;;;4955185;28;20413;-70
2022/06/20 14:46:59;;;;;;;10.13;3.70;;;;;;;;;;4942998;28;20054;-70
2022/06/20 14:49:25;;;;;;;7.70;3.97;;;;;;;;;;4956008;29;20390;-70
2022/06/20 14:51:51;;;;;;;11.98;4.30;;;;;;;;;;4956375;29;20047;-70
2022/06/20 14:54:26;;;;;;;9.13;4.20;;;;;;;;;;4956248;29;20054;-70
2022/06/20 14:57:11;;;;;;;8.85;4.07;;;;;;;;;;4956303;29;20054;-70
2022/06/20 14:59:37;;;;;;;7.80;3.85;;;;;;;;;;4956342;29;20047;-70
2022/06/20 15:05:21;;;;;;;13.68;4.28;;;;;;;;;;4955710;29;20030;-70
2022/06/20 15:07:53;;;;;;;8.40;3.90;;;;;;;;;;4956337;29;20577;-70
2022/06/20 15:10:27;;;;;;;8.48;3.72;;;;;;;;;;4956113;29;20490;-70
2022/06/20 15:13:04;;;;;;;9.85;3.78;;;;;;;;;;4956498;29;20045;-70
2022/06/20 15:15:35;;;;;;;8.82;3.83;;;;;;;;;;4956202;29;20053;-70
2022/06/20 15:18:20;;;;;;;8.32;3.65;;;;;;;;;;4955851;29;20514;-70
2022/06/20 15:20:54;;;;;;;8.40;3.85;;;;;;;;;;4956110;29;20035;-70